createdAt,value
2022-12-03T00:01:35.131Z,8.80
2022-12-03T00:04:03.566Z,7.20
2022-12-03T00:06:34.668Z,7.10
2022-12-03T00:09:04.775Z,7.50
2022-12-03T00:11:32.953Z,7.40
2022-12-03T00:14:01.010Z,7.30
2022-12-03T00:16:29.241Z,6.80
2022-12-03T00:18:57.431Z,8.30
2022-12-03T00:21:25.812Z,7.90
2022-12-03T00:23:53.994Z,7.30
2022-12-03T00:26:22.569Z,7.40
2022-12-03T00:28:51.321Z,6.80
2022-12-03T00:31:21.461Z,6.80
2022-12-03T00:33:53.440Z,6.80
2022-12-03T00:36:21.622Z,8.20
2022-12-03T00:38:49.528Z,6.60
2022-12-03T00:41:17.562Z,6.60
2022-12-03T00:43:45.625Z,7.30
2022-12-03T00:46:16.963Z,6.90
2022-12-03T00:48:47.917Z,7.10
2022-12-03T00:51:16.087Z,8.30
2022-12-03T00:53:44.160Z,7.20
2022-12-03T00:56:12.265Z,7.10
2022-12-03T00:58:40.357Z,9.20
2022-12-03T01:01:08.536Z,9.80
2022-12-03T01:03:36.856Z,9.30
2022-12-03T01:06:05.032Z,9.90
2022-12-03T01:08:33.034Z,9.40
2022-12-03T01:11:01.029Z,10.20
2022-12-03T01:13:29.349Z,10.30
2022-12-03T01:15:57.363Z,8.20
2022-12-03T01:18:25.429Z,7.70
2022-12-03T01:20:53.464Z,8.20
2022-12-03T01:23:21.534Z,7.70
2022-12-03T01:25:49.606Z,7.20
2022-12-03T01:28:17.678Z,7.40
2022-12-03T01:31:04.141Z,7.50
2022-12-03T01:33:32.254Z,7.30
2022-12-03T01:36:00.224Z,7.20
2022-12-03T01:38:28.245Z,7.40
2022-12-03T01:40:56.572Z,9.40
2022-12-03T01:43:24.644Z,10.30
2022-12-03T01:45:52.660Z,12.00
2022-12-03T01:48:20.703Z,11.90
2022-12-03T01:50:48.859Z,12.50
2022-12-03T01:53:19.093Z,12.20
2022-12-03T01:55:49.026Z,11.10
2022-12-03T01:58:22.420Z,13.20
2022-12-03T02:00:50.721Z,9.70
2022-12-03T02:03:23.507Z,8.20
2022-12-03T02:05:52.607Z,8.10
2022-12-03T02:08:35.432Z,7.70
2022-12-03T02:11:11.732Z,7.70
2022-12-03T02:13:40.214Z,8.00
2022-12-03T02:16:08.880Z,9.00
2022-12-03T02:18:37.177Z,8.40
2022-12-03T02:21:17.185Z,8.30
2022-12-03T02:23:51.251Z,9.10
2022-12-03T02:26:19.468Z,10.00
2022-12-03T02:28:47.599Z,11.00
2022-12-03T02:31:15.943Z,10.70
2022-12-03T02:33:44.554Z,9.50
2022-12-03T02:36:13.110Z,9.10
2022-12-03T02:38:43.220Z,9.80
2022-12-03T02:41:35.968Z,11.30
2022-12-03T02:44:06.854Z,10.40
2022-12-03T02:46:35.729Z,12.80
2022-12-03T02:49:06.309Z,10.30
2022-12-03T02:51:35.052Z,8.10
2022-12-03T02:54:03.807Z,7.50
2022-12-03T02:56:33.433Z,8.00
2022-12-03T02:59:05.023Z,6.70
2022-12-03T03:01:34.991Z,7.30
2022-12-03T03:04:04.631Z,7.30
2022-12-03T03:06:32.909Z,6.70
2022-12-03T03:09:01.187Z,7.10
2022-12-03T03:11:29.457Z,7.40
2022-12-03T03:13:57.735Z,7.10
2022-12-03T03:16:25.864Z,6.00
2022-12-03T03:18:53.979Z,6.90
2022-12-03T03:21:22.054Z,7.50
2022-12-03T03:23:50.022Z,8.00
2022-12-03T03:26:18.201Z,7.90
2022-12-03T03:28:49.957Z,8.40
2022-12-03T03:31:22.908Z,7.90
2022-12-03T03:33:52.036Z,7.10
2022-12-03T03:36:20.824Z,9.50
2022-12-03T03:38:49.511Z,9.00
2022-12-03T03:41:18.813Z,10.20
2022-12-03T03:46:17.504Z,8.70
2022-12-03T03:48:48.446Z,8.10
2022-12-03T03:51:17.653Z,8.00
2022-12-03T03:53:48.445Z,7.60
2022-12-03T03:56:19.343Z,8.20
2022-12-03T03:58:47.607Z,7.70
2022-12-03T04:01:17.269Z,9.10
2022-12-03T04:03:45.420Z,9.70
2022-12-03T04:06:13.459Z,9.00
2022-12-03T04:08:41.429Z,8.80
2022-12-03T04:11:28.043Z,9.30
2022-12-03T04:13:56.146Z,8.50
2022-12-03T04:16:24.340Z,8.00
2022-12-03T04:18:52.560Z,9.90
2022-12-03T04:21:41.747Z,9.30
2022-12-03T04:26:57.530Z,11.10
2022-12-03T04:29:25.601Z,10.80
2022-12-03T04:32:12.286Z,9.20
2022-12-03T04:34:58.966Z,11.10
2022-12-03T04:37:27.296Z,9.40
2022-12-03T04:39:55.470Z,10.30
2022-12-03T04:42:23.542Z,12.70
2022-12-03T04:44:52.276Z,11.00
2022-12-03T04:47:21.972Z,11.10
2022-12-03T04:49:52.087Z,10.20
2022-12-03T04:52:21.227Z,9.50
2022-12-03T04:54:49.440Z,11.20
2022-12-03T04:57:17.919Z,10.10
2022-12-03T04:59:46.201Z,9.80
2022-12-03T05:02:14.425Z,9.80
2022-12-03T05:04:43.673Z,11.20
2022-12-03T05:07:11.848Z,10.40
2022-12-03T05:09:39.907Z,9.80
2022-12-03T05:12:08.287Z,11.20
2022-12-03T05:14:36.767Z,10.90
2022-12-03T05:17:04.912Z,10.50
2022-12-03T05:19:51.961Z,10.10
2022-12-03T05:22:20.115Z,10.90
2022-12-03T05:24:48.386Z,10.10
2022-12-03T05:27:21.769Z,10.00
2022-12-03T05:29:52.137Z,13.50
2022-12-03T05:32:20.409Z,14.30
2022-12-03T05:34:48.635Z,14.80
2022-12-03T05:37:16.758Z,13.20
2022-12-03T05:39:44.937Z,16.10
2022-12-03T05:42:31.689Z,15.30
2022-12-03T05:44:59.915Z,15.80
2022-12-03T05:47:27.936Z,10.70
2022-12-03T05:49:56.039Z,11.20
2022-12-03T05:52:24.235Z,12.50
2022-12-03T05:54:52.600Z,13.20
2022-12-03T05:57:20.932Z,12.20
2022-12-03T05:59:49.036Z,15.60
2022-12-03T06:02:17.260Z,16.70
2022-12-03T06:04:45.767Z,12.70
2022-12-03T06:07:14.457Z,10.70
2022-12-03T06:09:42.682Z,13.50
2022-12-03T06:12:10.653Z,14.20
2022-12-03T06:14:39.045Z,17.10
2022-12-03T06:17:07.316Z,21.00
2022-12-03T06:19:35.491Z,16.90
2022-12-03T06:22:03.671Z,14.80
2022-12-03T06:24:31.837Z,14.40
2022-12-03T06:26:59.908Z,15.40
2022-12-03T06:29:27.980Z,18.10
2022-12-03T06:31:56.051Z,18.00
2022-12-03T06:34:24.139Z,14.20
2022-12-03T06:36:52.396Z,11.70
2022-12-03T06:39:22.748Z,11.60
2022-12-03T06:41:51.101Z,11.10
2022-12-03T06:44:19.183Z,12.90
2022-12-03T06:46:47.597Z,13.70
2022-12-03T06:49:15.825Z,13.30
2022-12-03T06:51:43.816Z,11.20
2022-12-03T06:54:12.484Z,11.50
2022-12-03T06:56:45.170Z,11.90
2022-12-03T06:59:13.963Z,10.70
2022-12-03T07:01:42.331Z,12.70
2022-12-03T07:04:10.683Z,13.90
2022-12-03T07:06:39.086Z,13.80
2022-12-03T07:09:07.262Z,12.70
2022-12-03T07:11:40.682Z,13.30
2022-12-03T07:14:11.630Z,15.20
2022-12-03T07:16:40.496Z,13.90
2022-12-03T07:19:09.382Z,15.70
2022-12-03T07:21:37.519Z,15.30
2022-12-03T07:24:06.756Z,18.90
2022-12-03T07:26:34.823Z,16.40
2022-12-03T07:29:03.515Z,17.70
2022-12-03T07:31:32.015Z,19.00
2022-12-03T07:34:00.069Z,22.20
2022-12-03T07:36:28.217Z,20.00
2022-12-03T07:38:56.309Z,18.90
2022-12-03T07:41:24.277Z,19.10
2022-12-03T07:43:52.350Z,19.40
2022-12-03T07:46:20.558Z,20.40
2022-12-03T07:48:48.598Z,21.20
2022-12-03T07:51:16.669Z,20.10
2022-12-03T07:53:44.739Z,22.60
2022-12-03T07:56:13.018Z,24.60
2022-12-03T07:58:41.208Z,21.10
2022-12-03T08:01:10.500Z,18.90
2022-12-03T08:03:38.773Z,21.10
2022-12-03T08:06:07.148Z,25.50
2022-12-03T08:08:35.424Z,25.20
2022-12-03T08:11:04.185Z,24.80
2022-12-03T08:13:34.335Z,25.20
2022-12-03T08:16:14.050Z,24.80
2022-12-03T08:18:42.111Z,24.10
2022-12-03T08:21:12.889Z,24.50
2022-12-03T08:23:41.751Z,25.00
2022-12-03T08:26:30.130Z,22.90
2022-12-03T08:28:58.216Z,25.60
2022-12-03T08:31:32.792Z,23.50
2022-12-03T08:34:23.009Z,26.00
2022-12-03T08:36:56.358Z,26.30
2022-12-03T08:39:30.540Z,27.00
2022-12-03T08:42:28.291Z,25.20
2022-12-03T08:44:57.097Z,24.70
2022-12-03T08:47:25.562Z,27.00
2022-12-03T08:50:23.741Z,24.30
2022-12-03T08:52:53.242Z,23.40
2022-12-03T08:55:37.041Z,26.20
2022-12-03T08:58:36.327Z,20.10
2022-12-03T09:01:07.471Z,26.20
2022-12-03T09:03:35.759Z,23.60
2022-12-03T09:06:04.352Z,24.60
2022-12-03T09:08:32.474Z,26.00
2022-12-03T09:11:01.458Z,28.20
2022-12-03T09:13:29.380Z,23.00
2022-12-03T09:15:58.526Z,28.50
2022-12-03T09:18:27.216Z,26.50
2022-12-03T09:20:56.619Z,25.20
2022-12-03T09:23:24.687Z,27.30
2022-12-03T09:25:52.965Z,27.00
2022-12-03T09:28:21.143Z,27.50
2022-12-03T09:30:49.211Z,28.90
2022-12-03T09:33:17.381Z,26.70
2022-12-03T09:35:45.455Z,27.70
2022-12-03T09:38:13.529Z,24.80
2022-12-03T09:40:42.419Z,29.20
2022-12-03T09:43:12.744Z,28.80
2022-12-03T09:45:40.810Z,27.20
2022-12-03T09:48:09.039Z,24.70
2022-12-03T09:50:41.571Z,25.90
2022-12-03T09:53:17.744Z,27.30
2022-12-03T09:55:49.608Z,26.60
2022-12-03T09:58:19.216Z,27.50
2022-12-03T10:03:23.026Z,25.50
2022-12-03T10:05:53.980Z,25.10
2022-12-03T10:08:26.943Z,23.90
2022-12-03T10:10:57.686Z,25.80
2022-12-03T10:13:31.085Z,27.10
2022-12-03T10:16:01.006Z,26.00
2022-12-03T10:18:38.315Z,25.80
2022-12-03T10:21:23.663Z,26.30
2022-12-03T10:24:16.927Z,24.50
2022-12-03T10:26:46.750Z,24.30
2022-12-03T10:29:33.649Z,23.80
2022-12-03T10:32:12.927Z,25.90
2022-12-03T10:34:42.495Z,24.80
2022-12-03T10:37:18.716Z,25.80
2022-12-03T10:40:08.635Z,24.70
2022-12-03T10:42:39.808Z,25.40
2022-12-03T10:45:25.431Z,25.30
2022-12-03T10:48:07.461Z,24.50
2022-12-03T10:50:36.340Z,25.30
2022-12-03T10:53:05.143Z,22.50
2022-12-03T10:55:39.860Z,23.90
2022-12-03T10:58:26.269Z,14.80
2022-12-03T11:00:56.502Z,14.80
2022-12-03T11:03:26.713Z,14.90
2022-12-03T11:05:56.796Z,14.20
2022-12-03T11:08:35.767Z,14.30
2022-12-03T11:11:08.084Z,13.00
2022-12-03T11:13:36.102Z,13.70
2022-12-03T11:16:06.193Z,12.40
2022-12-03T11:18:37.389Z,12.20
2022-12-03T11:21:05.950Z,12.90
2022-12-03T11:23:46.039Z,13.40
2022-12-03T11:26:19.218Z,13.20
2022-12-03T11:28:47.757Z,12.70
2022-12-03T11:31:48.002Z,13.60
2022-12-03T11:34:19.805Z,13.20
2022-12-03T11:37:10.065Z,10.90
2022-12-03T11:39:51.079Z,12.60
2022-12-03T11:42:27.933Z,12.20
2022-12-03T11:45:05.429Z,13.60
2022-12-03T11:48:00.305Z,14.00
2022-12-03T11:50:41.540Z,11.40
2022-12-03T11:53:15.742Z,13.30
2022-12-03T11:56:06.279Z,11.90
2022-12-03T11:58:38.277Z,13.00
2022-12-03T12:01:08.287Z,11.80
2022-12-03T12:03:36.401Z,12.30
2022-12-03T12:06:13.885Z,11.20
2022-12-03T12:08:56.931Z,12.10
2022-12-03T12:11:41.507Z,12.50
2022-12-03T12:14:13.882Z,12.10
2022-12-03T12:16:52.437Z,12.30
2022-12-03T12:19:54.095Z,12.60
2022-12-03T12:22:25.605Z,11.30
2022-12-03T12:24:58.922Z,11.30
2022-12-03T12:27:51.262Z,9.70
2022-12-03T12:30:24.557Z,11.10
2022-12-03T12:33:13.214Z,11.30
2022-12-03T12:35:42.105Z,11.60
2022-12-03T12:38:11.200Z,12.00
2022-12-03T12:43:24.078Z,12.00
2022-12-03T12:45:55.282Z,12.00
2022-12-03T12:48:25.199Z,12.70
2022-12-03T12:51:08.833Z,12.10
2022-12-03T12:53:38.742Z,12.50
2022-12-03T12:56:20.337Z,13.90
2022-12-03T12:58:48.310Z,12.00
2022-12-03T13:01:29.159Z,11.80
2022-12-03T13:03:58.459Z,13.70
2022-12-03T13:08:57.199Z,13.70
2022-12-03T13:11:25.260Z,14.10
2022-12-03T13:13:53.371Z,14.50
2022-12-03T13:16:32.768Z,14.60
2022-12-03T13:21:39.986Z,13.30
2022-12-03T13:24:35.980Z,14.50
2022-12-03T13:27:22.748Z,14.20
2022-12-03T13:29:59.275Z,15.20
2022-12-03T13:32:31.171Z,15.20
2022-12-03T13:35:06.067Z,14.20
2022-12-03T13:37:34.243Z,15.50
2022-12-03T13:40:22.590Z,14.30
2022-12-03T13:42:50.531Z,16.20
2022-12-03T13:45:24.995Z,17.10
2022-12-03T13:48:00.283Z,16.60
2022-12-03T13:50:39.539Z,14.70
2022-12-03T13:53:37.028Z,23.40
2022-12-03T13:56:17.077Z,20.00
2022-12-03T13:58:45.150Z,19.50
2022-12-03T14:01:13.259Z,18.50
2022-12-03T14:03:41.391Z,18.10
2022-12-03T14:06:09.316Z,17.30
2022-12-03T14:08:37.745Z,15.50
2022-12-03T14:11:06.223Z,15.00
2022-12-03T14:13:34.499Z,14.10
2022-12-03T14:16:02.677Z,14.50
2022-12-03T14:18:30.847Z,13.20
2022-12-03T14:20:59.031Z,12.80
2022-12-03T14:23:27.709Z,15.10
2022-12-03T14:25:55.791Z,17.30
2022-12-03T14:28:23.951Z,17.30
2022-12-03T14:30:53.666Z,15.30
2022-12-03T14:33:21.971Z,14.80
2022-12-03T14:35:53.515Z,14.00
2022-12-03T14:38:22.382Z,13.30
2022-12-03T14:40:50.454Z,13.30
2022-12-03T14:43:18.449Z,13.10
2022-12-03T14:45:46.867Z,14.30
2022-12-03T14:48:14.918Z,12.40
2022-12-03T14:50:43.153Z,9.40
2022-12-03T14:53:11.104Z,10.50
2022-12-03T14:55:39.401Z,10.30
2022-12-03T14:58:07.312Z,12.20
2022-12-03T15:00:35.340Z,12.60
2022-12-03T15:03:03.486Z,12.60
2022-12-03T15:05:31.690Z,14.00
2022-12-03T15:07:59.823Z,14.00
2022-12-03T15:10:27.847Z,12.30
2022-12-03T15:12:56.003Z,14.40
2022-12-03T15:15:24.595Z,11.90
2022-12-03T15:17:52.866Z,12.60
2022-12-03T15:20:20.894Z,11.90
2022-12-03T15:22:49.053Z,12.50
2022-12-03T15:25:24.299Z,11.80
2022-12-03T15:27:52.624Z,14.50
2022-12-03T15:30:20.839Z,14.70
2022-12-03T15:32:49.247Z,13.60
2022-12-03T15:35:18.803Z,15.00
2022-12-03T15:37:47.164Z,14.80
2022-12-03T15:40:15.545Z,15.00
2022-12-03T15:42:43.873Z,14.30
2022-12-03T15:45:15.328Z,11.40
2022-12-03T15:47:44.128Z,11.90
2022-12-03T15:50:14.210Z,14.80
2022-12-03T15:52:42.665Z,16.20
2022-12-03T15:55:10.836Z,18.00
2022-12-03T15:57:39.075Z,16.80
2022-12-03T16:00:08.620Z,17.00
2022-12-03T16:02:41.396Z,13.80
2022-12-03T16:05:12.216Z,16.30
2022-12-03T16:07:40.909Z,16.50
2022-12-03T16:10:11.006Z,20.00
2022-12-03T16:12:39.130Z,20.30
2022-12-03T16:15:07.553Z,21.60
2022-12-03T16:17:35.771Z,18.00
2022-12-03T16:20:04.969Z,18.30
2022-12-03T16:22:33.095Z,15.30
2022-12-03T16:25:01.217Z,18.10
2022-12-03T16:27:29.391Z,19.00
2022-12-03T16:29:57.579Z,23.00
2022-12-03T16:32:25.942Z,21.20
2022-12-03T16:34:53.909Z,17.60
2022-12-03T16:37:21.985Z,21.00
2022-12-03T16:39:52.101Z,16.30
2022-12-03T16:42:20.586Z,16.50
2022-12-03T16:45:12.363Z,9.70
2022-12-03T16:47:40.386Z,11.60
2022-12-03T16:50:12.820Z,12.60
2022-12-03T16:52:47.440Z,13.70
2022-12-03T16:57:43.527Z,13.40
2022-12-03T17:00:12.211Z,8.80
2022-12-03T17:02:40.198Z,11.40
2022-12-03T17:05:09.027Z,10.30
2022-12-03T17:07:37.341Z,9.50
2022-12-03T17:10:06.710Z,10.10
2022-12-03T17:13:07.129Z,10.20
2022-12-03T17:15:22.866Z,15.70
2022-12-03T17:17:50.909Z,16.50
2022-12-03T17:20:20.139Z,20.50
2022-12-03T17:22:48.417Z,20.20
2022-12-03T17:25:16.448Z,16.40
2022-12-03T17:27:48.615Z,19.30
2022-12-03T17:30:17.253Z,25.00
2022-12-03T17:32:45.346Z,15.80
2022-12-03T17:35:13.721Z,16.20
2022-12-03T17:37:41.799Z,15.00
2022-12-03T17:40:12.411Z,14.60
2022-12-03T17:42:40.550Z,14.40
2022-12-03T17:45:09.516Z,12.20
2022-12-03T17:47:37.554Z,14.40
2022-12-03T17:50:07.207Z,14.70
2022-12-03T17:52:35.236Z,15.70
2022-12-03T17:55:15.841Z,17.90
2022-12-03T17:57:49.704Z,18.40
2022-12-03T18:00:18.387Z,17.10
2022-12-03T18:02:46.526Z,15.50
2022-12-03T18:05:14.782Z,16.90
2022-12-03T18:07:42.882Z,15.20
2022-12-03T18:10:12.319Z,14.00
2022-12-03T18:12:40.685Z,13.70
2022-12-03T18:15:09.777Z,15.00
2022-12-03T18:17:38.155Z,13.60
2022-12-03T18:20:07.046Z,14.00
2022-12-03T18:22:35.940Z,15.70
2022-12-03T18:25:05.137Z,12.80
2022-12-03T18:27:34.231Z,15.90
2022-12-03T18:30:02.250Z,13.50
2022-12-03T18:32:30.606Z,14.90
2022-12-03T18:34:58.760Z,16.60
2022-12-03T18:37:28.775Z,15.40
2022-12-03T18:40:00.170Z,14.70
2022-12-03T18:42:28.313Z,13.50
2022-12-03T18:44:57.070Z,13.90
2022-12-03T18:47:29.106Z,14.90
2022-12-03T18:49:57.788Z,12.10
2022-12-03T18:52:26.315Z,14.30
2022-12-03T18:54:55.514Z,15.30
2022-12-03T18:59:52.277Z,16.70
2022-12-03T19:05:10.558Z,15.50
2022-12-03T19:07:38.738Z,16.30
2022-12-03T19:10:08.039Z,13.50
2022-12-03T19:15:06.062Z,13.10
2022-12-03T19:17:39.727Z,11.70
2022-12-03T19:20:09.584Z,13.30
2022-12-03T19:22:37.712Z,12.10
2022-12-03T19:25:06.294Z,14.30
2022-12-03T19:27:34.520Z,12.40
2022-12-03T19:30:02.547Z,13.10
2022-12-03T19:32:30.719Z,15.70
2022-12-03T19:34:59.096Z,17.00
2022-12-03T19:37:27.167Z,15.50
2022-12-03T19:39:55.557Z,16.70
2022-12-03T19:42:25.530Z,15.30
2022-12-03T19:44:53.741Z,16.90
2022-12-03T19:47:24.765Z,15.40
2022-12-03T19:49:53.969Z,14.00
2022-12-03T19:52:22.187Z,15.80
2022-12-03T19:54:50.274Z,13.30
2022-12-03T19:57:23.234Z,13.20
2022-12-03T19:59:52.041Z,13.40
2022-12-03T20:02:20.505Z,12.50
2022-12-03T20:04:48.862Z,13.80
2022-12-03T20:07:16.837Z,16.30
2022-12-03T20:09:45.110Z,17.20
2022-12-03T20:12:13.178Z,18.70
2022-12-03T20:14:41.556Z,17.30
2022-12-03T20:17:09.783Z,18.40
2022-12-03T20:19:38.012Z,15.50
2022-12-03T20:22:06.184Z,20.90
2022-12-03T20:24:34.258Z,14.20
2022-12-03T20:27:03.375Z,13.60
2022-12-03T20:29:31.646Z,14.40
2022-12-03T20:32:00.611Z,14.00
2022-12-03T20:34:28.744Z,15.40
2022-12-03T20:36:56.684Z,11.70
2022-12-03T20:39:25.057Z,11.40
2022-12-03T20:41:53.122Z,10.50
2022-12-03T20:44:21.186Z,11.80
2022-12-03T20:46:49.669Z,11.60
2022-12-03T20:49:17.658Z,10.90
2022-12-03T20:51:46.022Z,11.70
2022-12-03T20:54:14.213Z,12.70
2022-12-03T20:56:42.369Z,12.20
2022-12-03T20:59:13.002Z,11.70
2022-12-03T21:01:42.934Z,13.40
2022-12-03T21:04:18.118Z,12.00
2022-12-03T21:06:46.457Z,13.60
2022-12-03T21:09:14.812Z,13.30
2022-12-03T21:11:43.331Z,12.50
2022-12-03T21:14:11.669Z,12.50
2022-12-03T21:17:06.444Z,10.80
2022-12-03T21:19:28.360Z,10.60
2022-12-03T21:21:56.739Z,12.20
2022-12-03T21:24:24.846Z,12.70
2022-12-03T21:26:53.039Z,13.10
2022-12-03T21:29:21.216Z,12.20
2022-12-03T21:31:49.272Z,14.50
2022-12-03T21:34:17.683Z,11.40
2022-12-03T21:36:46.333Z,12.30
2022-12-03T21:39:14.762Z,13.00
2022-12-03T21:42:22.106Z,13.30
2022-12-03T21:44:30.852Z,12.70
2022-12-03T21:47:09.876Z,11.40
2022-12-03T21:49:42.356Z,11.30
2022-12-03T21:52:11.010Z,8.90
2022-12-03T21:54:39.111Z,11.20
2022-12-03T21:57:07.157Z,10.20
2022-12-03T21:59:35.231Z,10.60
2022-12-03T22:02:03.820Z,10.10
2022-12-03T22:04:32.250Z,13.80
2022-12-03T22:07:00.569Z,8.70
2022-12-03T22:09:28.644Z,9.40
2022-12-03T22:11:59.306Z,12.40
2022-12-03T22:14:28.473Z,11.90
2022-12-03T22:16:56.544Z,11.00
2022-12-03T22:19:26.055Z,12.70
2022-12-03T22:21:54.221Z,9.30
2022-12-03T22:24:23.896Z,11.80
2022-12-03T22:29:22.024Z,10.90
2022-12-03T22:31:50.402Z,9.70
2022-12-03T22:34:18.544Z,7.60
2022-12-03T22:36:46.753Z,10.00
2022-12-03T22:39:14.828Z,12.50
2022-12-03T22:41:42.896Z,26.60
2022-12-03T22:44:10.964Z,25.70
2022-12-03T22:46:39.961Z,24.50
2022-12-03T22:49:08.442Z,13.60
2022-12-03T22:51:36.921Z,20.60
2022-12-03T22:54:06.228Z,25.00
2022-12-03T22:56:34.909Z,19.30
2022-12-03T22:59:03.187Z,21.50
2022-12-03T23:01:33.833Z,13.00
2022-12-03T23:04:02.879Z,11.00
2022-12-03T23:08:59.774Z,9.80
2022-12-03T23:11:28.768Z,11.00
2022-12-03T23:13:59.052Z,11.40
2022-12-03T23:16:30.310Z,13.40
2022-12-03T23:19:00.664Z,14.90
2022-12-03T23:21:32.735Z,11.80
2022-12-03T23:24:03.576Z,14.80
2022-12-03T23:26:36.348Z,11.00
2022-12-03T23:29:06.296Z,11.80
2022-12-03T23:31:35.006Z,10.20
2022-12-03T23:34:04.119Z,11.90
2022-12-03T23:36:33.478Z,9.80
2022-12-03T23:41:29.475Z,9.50
2022-12-03T23:43:57.838Z,9.60
2022-12-03T23:46:27.781Z,11.40
2022-12-03T23:48:58.646Z,11.10
2022-12-03T23:51:27.500Z,8.90
2022-12-03T23:53:56.751Z,9.50
2022-12-03T23:56:29.303Z,10.00
2022-12-03T23:58:58.471Z,10.60
